sensor_id;sensor_type;location;lat;lon;timestamp;P1;durP1;ratioP1;P2;durP2;ratioP2
23236;SDS011;11787;52.018;8.570;2022-07-21T00:01:18;7.90;;;4.30;;
23236;SDS011;11787;52.018;8.570;2022-07-21T00:03:43;6.60;;;4.03;;
23236;SDS011;11787;52.018;8.570;2022-07-21T00:06:09;6.45;;;4.05;;
23236;SDS011;11787;52.018;8.570;2022-07-21T00:08:35;6.45;;;4.40;;
23236;SDS011;11787;52.018;8.570;2022-07-21T00:11:01;6.68;;;5.28;;
23236;SDS011;11787;52.018;8.570;2022-07-21T00:13:27;7.82;;;4.95;;
23236;SDS011;11787;52.018;8.570;2022-07-21T00:15:53;5.30;;;4.75;;
23236;SDS011;11787;52.018;8.570;2022-07-21T00:18:19;6.20;;;4.53;;
23236;SDS011;11787;52.018;8.570;2022-07-21T00:20:45;10.25;;;5.90;;
23236;SDS011;11787;52.018;8.570;2022-07-21T00:23:11;8.30;;;5.85;;
23236;SDS011;11787;52.018;8.570;2022-07-21T00:25:36;8.90;;;5.18;;
23236;SDS011;11787;52.018;8.570;2022-07-21T00:28:03;6.03;;;5.13;;
23236;SDS011;11787;52.018;8.570;2022-07-21T00:30:29;7.38;;;5.35;;
23236;SDS011;11787;52.018;8.570;2022-07-21T00:32:55;6.63;;;5.38;;
23236;SDS011;11787;52.018;8.570;2022-07-21T00:35:21;8.00;;;5.38;;
23236;SDS011;11787;52.018;8.570;2022-07-21T00:37:46;9.52;;;5.53;;
23236;SDS011;11787;52.018;8.570;2022-07-21T00:40:12;7.72;;;5.60;;
23236;SDS011;11787;52.018;8.570;2022-07-21T00:42:38;5.70;;;4.78;;
23236;SDS011;11787;52.018;8.570;2022-07-21T00:45:05;6.03;;;5.18;;
23236;SDS011;11787;52.018;8.570;2022-07-21T00:47:32;7.60;;;5.53;;
23236;SDS011;11787;52.018;8.570;2022-07-21T00:49:59;7.13;;;5.10;;
23236;SDS011;11787;52.018;8.570;2022-07-21T00:52:28;8.38;;;6.05;;
23236;SDS011;11787;52.018;8.570;2022-07-21T00:54:54;8.30;;;5.65;;
23236;SDS011;11787;52.018;8.570;2022-07-21T00:57:19;7.43;;;5.30;;
23236;SDS011;11787;52.018;8.570;2022-07-21T00:59:45;9.30;;;5.82;;
23236;SDS011;11787;52.018;8.570;2022-07-21T01:02:11;6.70;;;5.32;;
23236;SDS011;11787;52.018;8.570;2022-07-21T01:04:37;7.90;;;6.10;;
23236;SDS011;11787;52.018;8.570;2022-07-21T01:07:04;8.80;;;5.50;;
23236;SDS011;11787;52.018;8.570;2022-07-21T01:09:31;8.50;;;6.18;;
23236;SDS011;11787;52.018;8.570;2022-07-21T01:11:58;7.45;;;5.53;;
23236;SDS011;11787;52.018;8.570;2022-07-21T01:14:25;6.10;;;5.20;;
23236;SDS011;11787;52.018;8.570;2022-07-21T01:16:51;11.63;;;5.78;;
23236;SDS011;11787;52.018;8.570;2022-07-21T01:19:16;7.47;;;5.78;;
23236;SDS011;11787;52.018;8.570;2022-07-21T01:21:43;9.43;;;6.80;;
23236;SDS011;11787;52.018;8.570;2022-07-21T01:24:11;7.72;;;6.13;;
23236;SDS011;11787;52.018;8.570;2022-07-21T01:26:41;7.90;;;5.45;;
23236;SDS011;11787;52.018;8.570;2022-07-21T01:29:07;6.65;;;5.35;;
23236;SDS011;11787;52.018;8.570;2022-07-21T01:31:34;8.32;;;5.53;;
23236;SDS011;11787;52.018;8.570;2022-07-21T01:34:01;8.93;;;5.90;;
23236;SDS011;11787;52.018;8.570;2022-07-21T01:36:27;6.85;;;5.30;;
23236;SDS011;11787;52.018;8.570;2022-07-21T01:38:52;6.15;;;5.43;;
23236;SDS011;11787;52.018;8.570;2022-07-21T01:41:36;7.18;;;5.60;;
23236;SDS011;11787;52.018;8.570;2022-07-21T01:44:04;6.25;;;5.32;;
23236;SDS011;11787;52.018;8.570;2022-07-21T01:46:36;6.63;;;5.90;;
23236;SDS011;11787;52.018;8.570;2022-07-21T01:49:04;6.45;;;5.78;;
23236;SDS011;11787;52.018;8.570;2022-07-21T01:51:32;7.38;;;5.65;;
23236;SDS011;11787;52.018;8.570;2022-07-21T01:53:58;6.88;;;5.50;;
23236;SDS011;11787;52.018;8.570;2022-07-21T01:56:25;8.10;;;5.88;;
23236;SDS011;11787;52.018;8.570;2022-07-21T01:58:51;6.13;;;5.53;;
23236;SDS011;11787;52.018;8.570;2022-07-21T02:01:31;6.25;;;5.35;;
23236;SDS011;11787;52.018;8.570;2022-07-21T02:03:58;6.10;;;5.50;;
23236;SDS011;11787;52.018;8.570;2022-07-21T02:06:25;8.88;;;5.78;;
23236;SDS011;11787;52.018;8.570;2022-07-21T02:08:53;10.38;;;6.50;;
23236;SDS011;11787;52.018;8.570;2022-07-21T02:11:19;8.60;;;6.28;;
23236;SDS011;11787;52.018;8.570;2022-07-21T02:13:45;8.95;;;6.47;;
23236;SDS011;11787;52.018;8.570;2022-07-21T02:16:11;8.10;;;6.82;;
23236;SDS011;11787;52.018;8.570;2022-07-21T02:18:37;7.38;;;5.97;;
23236;SDS011;11787;52.018;8.570;2022-07-21T02:21:04;7.28;;;6.57;;
23236;SDS011;11787;52.018;8.570;2022-07-21T02:23:30;9.30;;;6.38;;
23236;SDS011;11787;52.018;8.570;2022-07-21T02:25:56;8.20;;;6.65;;
23236;SDS011;11787;52.018;8.570;2022-07-21T02:28:22;7.68;;;6.45;;
23236;SDS011;11787;52.018;8.570;2022-07-21T02:30:49;7.43;;;6.72;;
23236;SDS011;11787;52.018;8.570;2022-07-21T02:33:15;9.43;;;7.38;;
23236;SDS011;11787;52.018;8.570;2022-07-21T02:35:41;9.00;;;7.53;;
23236;SDS011;11787;52.018;8.570;2022-07-21T02:38:07;8.77;;;7.85;;
23236;SDS011;11787;52.018;8.570;2022-07-21T02:40:33;8.15;;;6.90;;
23236;SDS011;11787;52.018;8.570;2022-07-21T02:42:59;8.80;;;7.70;;
23236;SDS011;11787;52.018;8.570;2022-07-21T02:45:25;9.52;;;7.55;;
23236;SDS011;11787;52.018;8.570;2022-07-21T02:47:55;8.10;;;7.28;;
23236;SDS011;11787;52.018;8.570;2022-07-21T02:50:23;8.27;;;7.50;;
23236;SDS011;11787;52.018;8.570;2022-07-21T02:52:53;8.55;;;7.20;;
23236;SDS011;11787;52.018;8.570;2022-07-21T02:55:23;7.25;;;6.40;;
23236;SDS011;11787;52.018;8.570;2022-07-21T02:57:49;8.27;;;7.40;;
23236;SDS011;11787;52.018;8.570;2022-07-21T03:00:28;7.93;;;7.13;;
23236;SDS011;11787;52.018;8.570;2022-07-21T03:02:53;10.25;;;7.70;;
23236;SDS011;11787;52.018;8.570;2022-07-21T03:05:19;8.27;;;7.22;;
23236;SDS011;11787;52.018;8.570;2022-07-21T03:07:45;9.90;;;8.00;;
23236;SDS011;11787;52.018;8.570;2022-07-21T03:10:10;9.60;;;8.65;;
23236;SDS011;11787;52.018;8.570;2022-07-21T03:12:36;8.63;;;7.68;;
23236;SDS011;11787;52.018;8.570;2022-07-21T03:15:02;9.45;;;7.70;;
23236;SDS011;11787;52.018;8.570;2022-07-21T03:17:27;8.82;;;7.32;;
23236;SDS011;11787;52.018;8.570;2022-07-21T03:19:53;10.77;;;8.30;;
23236;SDS011;11787;52.018;8.570;2022-07-21T03:22:19;9.77;;;8.88;;
23236;SDS011;11787;52.018;8.570;2022-07-21T03:24:44;12.38;;;10.80;;
23236;SDS011;11787;52.018;8.570;2022-07-21T03:27:10;12.10;;;10.90;;
23236;SDS011;11787;52.018;8.570;2022-07-21T03:29:35;11.82;;;10.50;;
23236;SDS011;11787;52.018;8.570;2022-07-21T03:32:01;11.73;;;10.52;;
23236;SDS011;11787;52.018;8.570;2022-07-21T03:34:26;13.60;;;11.85;;
23236;SDS011;11787;52.018;8.570;2022-07-21T03:36:52;15.23;;;13.73;;
23236;SDS011;11787;52.018;8.570;2022-07-21T03:39:18;15.98;;;13.38;;
23236;SDS011;11787;52.018;8.570;2022-07-21T03:41:43;13.48;;;12.18;;
23236;SDS011;11787;52.018;8.570;2022-07-21T03:44:09;13.20;;;11.85;;
23236;SDS011;11787;52.018;8.570;2022-07-21T03:46:34;12.63;;;11.52;;
23236;SDS011;11787;52.018;8.570;2022-07-21T03:49:00;13.27;;;12.02;;
23236;SDS011;11787;52.018;8.570;2022-07-21T03:51:25;13.23;;;12.00;;
23236;SDS011;11787;52.018;8.570;2022-07-21T03:53:51;11.25;;;10.05;;
23236;SDS011;11787;52.018;8.570;2022-07-21T03:56:17;13.73;;;11.07;;
23236;SDS011;11787;52.018;8.570;2022-07-21T03:58:42;11.00;;;9.57;;
23236;SDS011;11787;52.018;8.570;2022-07-21T04:01:08;11.55;;;9.88;;
23236;SDS011;11787;52.018;8.570;2022-07-21T04:03:34;9.48;;;8.48;;
23236;SDS011;11787;52.018;8.570;2022-07-21T04:06:00;10.70;;;8.90;;
23236;SDS011;11787;52.018;8.570;2022-07-21T04:08:25;12.30;;;6.30;;
23236;SDS011;11787;52.018;8.570;2022-07-21T04:10:52;9.10;;;6.65;;
23236;SDS011;11787;52.018;8.570;2022-07-21T04:13:17;10.25;;;7.32;;
23236;SDS011;11787;52.018;8.570;2022-07-21T04:15:43;8.70;;;7.28;;
23236;SDS011;11787;52.018;8.570;2022-07-21T04:18:09;8.85;;;7.18;;
23236;SDS011;11787;52.018;8.570;2022-07-21T04:20:35;8.60;;;6.50;;
23236;SDS011;11787;52.018;8.570;2022-07-21T04:23:01;6.97;;;5.05;;
23236;SDS011;11787;52.018;8.570;2022-07-21T04:25:27;7.35;;;4.63;;
23236;SDS011;11787;52.018;8.570;2022-07-21T04:27:54;5.80;;;4.60;;
23236;SDS011;11787;52.018;8.570;2022-07-21T04:30:22;4.97;;;4.50;;
23236;SDS011;11787;52.018;8.570;2022-07-21T04:32:48;4.20;;;3.85;;
23236;SDS011;11787;52.018;8.570;2022-07-21T04:35:15;8.90;;;3.92;;
23236;SDS011;11787;52.018;8.570;2022-07-21T04:37:41;4.70;;;4.30;;
23236;SDS011;11787;52.018;8.570;2022-07-21T04:40:07;3.97;;;3.58;;
23236;SDS011;11787;52.018;8.570;2022-07-21T04:42:35;4.20;;;3.80;;
23236;SDS011;11787;52.018;8.570;2022-07-21T04:45:01;4.65;;;4.15;;
23236;SDS011;11787;52.018;8.570;2022-07-21T04:47:27;4.05;;;3.65;;
23236;SDS011;11787;52.018;8.570;2022-07-21T04:49:53;4.45;;;4.05;;
23236;SDS011;11787;52.018;8.570;2022-07-21T04:52:18;4.85;;;4.28;;
23236;SDS011;11787;52.018;8.570;2022-07-21T04:54:45;5.18;;;4.68;;
23236;SDS011;11787;52.018;8.570;2022-07-21T04:57:11;4.90;;;4.47;;
23236;SDS011;11787;52.018;8.570;2022-07-21T04:59:36;6.93;;;4.47;;
23236;SDS011;11787;52.018;8.570;2022-07-21T05:02:02;5.80;;;4.97;;
23236;SDS011;11787;52.018;8.570;2022-07-21T05:04:29;5.22;;;4.78;;
23236;SDS011;11787;52.018;8.570;2022-07-21T05:06:55;5.82;;;5.20;;
23236;SDS011;11787;52.018;8.570;2022-07-21T05:09:21;5.18;;;4.68;;
23236;SDS011;11787;52.018;8.570;2022-07-21T05:11:46;6.65;;;6.05;;
23236;SDS011;11787;52.018;8.570;2022-07-21T05:14:12;6.03;;;5.30;;
23236;SDS011;11787;52.018;8.570;2022-07-21T05:16:38;7.10;;;6.50;;
23236;SDS011;11787;52.018;8.570;2022-07-21T05:19:03;8.45;;;7.65;;
23236;SDS011;11787;52.018;8.570;2022-07-21T05:21:29;8.35;;;7.50;;
23236;SDS011;11787;52.018;8.570;2022-07-21T05:23:55;9.60;;;8.63;;
23236;SDS011;11787;52.018;8.570;2022-07-21T05:26:21;8.60;;;7.80;;
23236;SDS011;11787;52.018;8.570;2022-07-21T05:28:47;11.95;;;10.85;;
23236;SDS011;11787;52.018;8.570;2022-07-21T05:31:13;10.38;;;9.38;;
23236;SDS011;11787;52.018;8.570;2022-07-21T05:33:38;12.15;;;10.95;;
23236;SDS011;11787;52.018;8.570;2022-07-21T05:36:04;14.10;;;12.70;;
23236;SDS011;11787;52.018;8.570;2022-07-21T05:38:30;15.35;;;13.95;;
23236;SDS011;11787;52.018;8.570;2022-07-21T05:40:56;14.70;;;13.40;;
23236;SDS011;11787;52.018;8.570;2022-07-21T05:43:24;19.92;;;18.00;;
23236;SDS011;11787;52.018;8.570;2022-07-21T05:45:51;19.58;;;17.77;;
23236;SDS011;11787;52.018;8.570;2022-07-21T05:48:16;17.67;;;16.02;;
23236;SDS011;11787;52.018;8.570;2022-07-21T05:50:42;15.38;;;14.02;;
23236;SDS011;11787;52.018;8.570;2022-07-21T05:53:08;18.35;;;16.67;;
23236;SDS011;11787;52.018;8.570;2022-07-21T05:55:34;17.75;;;16.05;;
23236;SDS011;11787;52.018;8.570;2022-07-21T05:58:00;18.17;;;16.48;;
23236;SDS011;11787;52.018;8.570;2022-07-21T06:00:25;19.38;;;17.58;;
23236;SDS011;11787;52.018;8.570;2022-07-21T06:02:51;17.65;;;16.15;;
23236;SDS011;11787;52.018;8.570;2022-07-21T06:05:17;17.25;;;15.48;;
23236;SDS011;11787;52.018;8.570;2022-07-21T06:07:42;17.05;;;15.55;;
23236;SDS011;11787;52.018;8.570;2022-07-21T06:10:08;18.08;;;16.38;;
23236;SDS011;11787;52.018;8.570;2022-07-21T06:12:34;15.45;;;13.95;;
23236;SDS011;11787;52.018;8.570;2022-07-21T06:15:00;17.20;;;15.70;;
23236;SDS011;11787;52.018;8.570;2022-07-21T06:17:26;14.88;;;13.40;;
23236;SDS011;11787;52.018;8.570;2022-07-21T06:24:48;15.60;;;14.10;;
23236;SDS011;11787;52.018;8.570;2022-07-21T06:29:39;15.40;;;14.00;;
23236;SDS011;11787;52.018;8.570;2022-07-21T06:39:22;12.93;;;11.77;;
23236;SDS011;11787;52.018;8.570;2022-07-21T06:41:47;14.30;;;12.90;;
23236;SDS011;11787;52.018;8.570;2022-07-21T06:44:13;13.98;;;12.80;;
23236;SDS011;11787;52.018;8.570;2022-07-21T06:46:38;14.20;;;12.82;;
23236;SDS011;11787;52.018;8.570;2022-07-21T06:49:04;14.63;;;13.20;;
23236;SDS011;11787;52.018;8.570;2022-07-21T06:51:29;14.25;;;12.85;;
23236;SDS011;11787;52.018;8.570;2022-07-21T06:53:55;13.38;;;12.23;;
23236;SDS011;11787;52.018;8.570;2022-07-21T06:56:21;14.27;;;12.98;;
23236;SDS011;11787;52.018;8.570;2022-07-21T06:58:46;13.75;;;12.65;;
23236;SDS011;11787;52.018;8.570;2022-07-21T07:01:12;15.00;;;13.60;;
23236;SDS011;11787;52.018;8.570;2022-07-21T07:03:41;13.85;;;12.45;;
23236;SDS011;11787;52.018;8.570;2022-07-21T07:06:07;14.48;;;13.07;;
23236;SDS011;11787;52.018;8.570;2022-07-21T07:08:33;13.98;;;12.75;;
23236;SDS011;11787;52.018;8.570;2022-07-21T07:10:59;14.40;;;13.10;;
23236;SDS011;11787;52.018;8.570;2022-07-21T07:13:24;16.00;;;14.45;;
23236;SDS011;11787;52.018;8.570;2022-07-21T07:15:50;14.32;;;13.00;;
23236;SDS011;11787;52.018;8.570;2022-07-21T07:18:16;15.98;;;14.48;;
23236;SDS011;11787;52.018;8.570;2022-07-21T07:20:41;14.05;;;12.57;;
23236;SDS011;11787;52.018;8.570;2022-07-21T07:25:32;14.25;;;12.95;;
23236;SDS011;11787;52.018;8.570;2022-07-21T07:27:58;14.80;;;13.50;;
23236;SDS011;11787;52.018;8.570;2022-07-21T07:30:24;15.50;;;14.00;;
23236;SDS011;11787;52.018;8.570;2022-07-21T07:32:50;13.55;;;12.18;;
23236;SDS011;11787;52.018;8.570;2022-07-21T07:35:15;14.68;;;13.27;;
23236;SDS011;11787;52.018;8.570;2022-07-21T07:37:43;16.63;;;13.52;;
23236;SDS011;11787;52.018;8.570;2022-07-21T07:40:11;13.23;;;12.00;;
23236;SDS011;11787;52.018;8.570;2022-07-21T07:42:41;14.10;;;12.70;;
23236;SDS011;11787;52.018;8.570;2022-07-21T07:45:08;14.05;;;12.65;;
23236;SDS011;11787;52.018;8.570;2022-07-21T07:47:35;15.30;;;13.43;;
23236;SDS011;11787;52.018;8.570;2022-07-21T07:50:01;13.35;;;12.07;;
23236;SDS011;11787;52.018;8.570;2022-07-21T07:52:28;13.95;;;12.65;;
23236;SDS011;11787;52.018;8.570;2022-07-21T07:54:54;14.48;;;13.18;;
23236;SDS011;11787;52.018;8.570;2022-07-21T07:57:19;14.30;;;12.77;;
23236;SDS011;11787;52.018;8.570;2022-07-21T07:59:45;13.73;;;12.45;;
23236;SDS011;11787;52.018;8.570;2022-07-21T08:02:10;14.75;;;13.35;;
23236;SDS011;11787;52.018;8.570;2022-07-21T08:04:36;13.65;;;12.25;;
23236;SDS011;11787;52.018;8.570;2022-07-21T08:07:02;12.43;;;11.25;;
23236;SDS011;11787;52.018;8.570;2022-07-21T08:09:28;11.73;;;10.50;;
23236;SDS011;11787;52.018;8.570;2022-07-21T08:11:54;12.13;;;10.93;;
23236;SDS011;11787;52.018;8.570;2022-07-21T08:14:20;10.80;;;9.82;;
23236;SDS011;11787;52.018;8.570;2022-07-21T08:16:46;11.30;;;10.20;;
23236;SDS011;11787;52.018;8.570;2022-07-21T08:19:11;13.95;;;10.88;;
23236;SDS011;11787;52.018;8.570;2022-07-21T08:21:37;11.20;;;10.10;;
23236;SDS011;11787;52.018;8.570;2022-07-21T08:24:03;10.05;;;9.15;;
23236;SDS011;11787;52.018;8.570;2022-07-21T08:26:29;9.30;;;8.50;;
23236;SDS011;11787;52.018;8.570;2022-07-21T08:28:55;9.40;;;8.50;;
23236;SDS011;11787;52.018;8.570;2022-07-21T08:31:22;12.60;;;9.30;;
23236;SDS011;11787;52.018;8.570;2022-07-21T08:33:49;10.10;;;9.10;;
23236;SDS011;11787;52.018;8.570;2022-07-21T08:36:15;9.40;;;8.50;;
23236;SDS011;11787;52.018;8.570;2022-07-21T08:38:41;10.10;;;9.10;;
23236;SDS011;11787;52.018;8.570;2022-07-21T09:00:36;9.30;;;8.48;;
23236;SDS011;11787;52.018;8.570;2022-07-21T09:03:07;10.77;;;8.10;;
23236;SDS011;11787;52.018;8.570;2022-07-21T09:05:36;20.05;;;10.38;;
23236;SDS011;11787;52.018;8.570;2022-07-21T09:08:02;9.35;;;7.28;;
23236;SDS011;11787;52.018;8.570;2022-07-21T09:10:28;9.57;;;6.95;;
23236;SDS011;11787;52.018;8.570;2022-07-21T09:13:00;7.40;;;6.70;;
23236;SDS011;11787;52.018;8.570;2022-07-21T09:15:28;8.00;;;7.20;;
23236;SDS011;11787;52.018;8.570;2022-07-21T09:18:13;10.05;;;7.90;;
23236;SDS011;11787;52.018;8.570;2022-07-21T09:20:48;9.23;;;7.28;;
23236;SDS011;11787;52.018;8.570;2022-07-21T09:23:16;8.75;;;7.95;;
23236;SDS011;11787;52.018;8.570;2022-07-21T09:28:12;8.43;;;6.88;;
23236;SDS011;11787;52.018;8.570;2022-07-21T09:33:27;8.80;;;7.90;;
23236;SDS011;11787;52.018;8.570;2022-07-21T09:36:15;9.13;;;7.35;;
23236;SDS011;11787;52.018;8.570;2022-07-21T09:41:10;10.27;;;8.07;;
23236;SDS011;11787;52.018;8.570;2022-07-21T09:43:45;9.68;;;7.60;;
23236;SDS011;11787;52.018;8.570;2022-07-21T09:48:46;9.98;;;7.35;;
23236;SDS011;11787;52.018;8.570;2022-07-21T09:56:21;8.00;;;7.20;;
23236;SDS011;11787;52.018;8.570;2022-07-21T09:58:48;7.97;;;7.28;;
23236;SDS011;11787;52.018;8.570;2022-07-21T10:01:16;8.55;;;7.13;;
23236;SDS011;11787;52.018;8.570;2022-07-21T10:03:45;9.13;;;8.23;;
23236;SDS011;11787;52.018;8.570;2022-07-21T10:25:51;10.27;;;9.32;;
23236;SDS011;11787;52.018;8.570;2022-07-21T10:28:21;10.02;;;9.23;;
23236;SDS011;11787;52.018;8.570;2022-07-21T10:30:52;10.65;;;9.55;;
23236;SDS011;11787;52.018;8.570;2022-07-21T10:33:20;10.25;;;9.38;;
23236;SDS011;11787;52.018;8.570;2022-07-21T10:36:06;9.55;;;8.57;;
23236;SDS011;11787;52.018;8.570;2022-07-21T10:38:33;9.77;;;8.85;;
23236;SDS011;11787;52.018;8.570;2022-07-21T10:41:01;7.35;;;6.65;;
23236;SDS011;11787;52.018;8.570;2022-07-21T10:45:54;6.55;;;5.97;;
23236;SDS011;11787;52.018;8.570;2022-07-21T10:51:03;6.43;;;5.93;;
23236;SDS011;11787;52.018;8.570;2022-07-21T10:53:31;6.65;;;6.05;;
23236;SDS011;11787;52.018;8.570;2022-07-21T10:55:57;6.90;;;5.95;;
23236;SDS011;11787;52.018;8.570;2022-07-21T11:03:21;6.65;;;6.05;;
23236;SDS011;11787;52.018;8.570;2022-07-21T11:08:50;8.95;;;6.25;;
23236;SDS011;11787;52.018;8.570;2022-07-21T11:22:03;7.13;;;6.43;;
23236;SDS011;11787;52.018;8.570;2022-07-21T11:24:30;6.57;;;5.93;;
23236;SDS011;11787;52.018;8.570;2022-07-21T11:27:00;6.50;;;5.90;;
23236;SDS011;11787;52.018;8.570;2022-07-21T11:29:26;6.75;;;6.15;;
23236;SDS011;11787;52.018;8.570;2022-07-21T11:31:53;7.90;;;6.32;;
23236;SDS011;11787;52.018;8.570;2022-07-21T11:34:19;9.43;;;5.68;;
23236;SDS011;11787;52.018;8.570;2022-07-21T11:36:45;7.03;;;5.85;;
23236;SDS011;11787;52.018;8.570;2022-07-21T11:39:12;7.68;;;6.07;;
23236;SDS011;11787;52.018;8.570;2022-07-21T11:41:39;6.10;;;5.57;;
23236;SDS011;11787;52.018;8.570;2022-07-21T11:44:07;6.43;;;5.82;;
23236;SDS011;11787;52.018;8.570;2022-07-21T11:49:30;5.65;;;4.80;;
23236;SDS011;11787;52.018;8.570;2022-07-21T12:31:26;5.22;;;4.20;;
23236;SDS011;11787;52.018;8.570;2022-07-21T12:43:38;6.07;;;5.55;;
23236;SDS011;11787;52.018;8.570;2022-07-21T12:46:14;6.75;;;5.28;;
23236;SDS011;11787;52.018;8.570;2022-07-21T12:48:43;6.93;;;5.80;;
23236;SDS011;11787;52.018;8.570;2022-07-21T12:53:47;7.38;;;6.68;;
23236;SDS011;11787;52.018;8.570;2022-07-21T12:56:15;7.38;;;6.78;;
23236;SDS011;11787;52.018;8.570;2022-07-21T12:58:43;9.50;;;7.63;;
23236;SDS011;11787;52.018;8.570;2022-07-21T13:01:09;7.93;;;7.10;;
23236;SDS011;11787;52.018;8.570;2022-07-21T13:03:35;8.40;;;7.50;;
23236;SDS011;11787;52.018;8.570;2022-07-21T13:20:36;8.07;;;6.45;;
23236;SDS011;11787;52.018;8.570;2022-07-21T13:23:02;7.20;;;6.03;;
23236;SDS011;11787;52.018;8.570;2022-07-21T13:25:28;7.07;;;5.95;;
23236;SDS011;11787;52.018;8.570;2022-07-21T17:52:43;10.88;;;9.98;;
23236;SDS011;11787;52.018;8.570;2022-07-21T17:55:09;9.85;;;8.45;;
23236;SDS011;11787;52.018;8.570;2022-07-21T17:57:35;9.90;;;8.90;;
23236;SDS011;11787;52.018;8.570;2022-07-21T18:00:19;10.05;;;9.15;;
23236;SDS011;11787;52.018;8.570;2022-07-21T18:05:12;11.07;;;9.70;;
23236;SDS011;11787;52.018;8.570;2022-07-21T18:07:38;8.80;;;8.00;;
23236;SDS011;11787;52.018;8.570;2022-07-21T18:10:04;8.23;;;7.53;;
23236;SDS011;11787;52.018;8.570;2022-07-21T18:12:30;8.35;;;7.65;;
23236;SDS011;11787;52.018;8.570;2022-07-21T19:08:23;11.33;;;10.23;;
23236;SDS011;11787;52.018;8.570;2022-07-21T19:10:48;11.73;;;10.70;;
23236;SDS011;11787;52.018;8.570;2022-07-21T19:13:14;12.75;;;11.63;;
23236;SDS011;11787;52.018;8.570;2022-07-21T19:18:05;12.68;;;11.57;;
23236;SDS011;11787;52.018;8.570;2022-07-21T19:20:31;10.80;;;9.70;;
23236;SDS011;11787;52.018;8.570;2022-07-21T19:22:56;10.73;;;9.80;;
23236;SDS011;11787;52.018;8.570;2022-07-21T19:25:22;10.20;;;9.20;;
23236;SDS011;11787;52.018;8.570;2022-07-21T19:27:49;9.63;;;8.70;;
23236;SDS011;11787;52.018;8.570;2022-07-21T19:30:14;7.65;;;6.95;;
23236;SDS011;11787;52.018;8.570;2022-07-21T19:32:41;10.13;;;9.23;;
23236;SDS011;11787;52.018;8.570;2022-07-21T19:35:07;10.02;;;9.13;;
23236;SDS011;11787;52.018;8.570;2022-07-21T19:37:33;10.02;;;9.07;;
23236;SDS011;11787;52.018;8.570;2022-07-21T19:54:33;7.05;;;6.35;;
23236;SDS011;11787;52.018;8.570;2022-07-21T19:56:58;9.35;;;8.45;;
23236;SDS011;11787;52.018;8.570;2022-07-21T19:59:24;10.30;;;9.30;;
23236;SDS011;11787;52.018;8.570;2022-07-21T20:01:50;9.65;;;8.85;;
23236;SDS011;11787;52.018;8.570;2022-07-21T20:04:23;10.52;;;9.63;;
23236;SDS011;11787;52.018;8.570;2022-07-21T20:06:49;10.32;;;9.50;;
23236;SDS011;11787;52.018;8.570;2022-07-21T20:09:14;12.52;;;11.35;;
23236;SDS011;11787;52.018;8.570;2022-07-21T20:11:40;12.30;;;11.07;;
23236;SDS011;11787;52.018;8.570;2022-07-21T20:14:06;13.70;;;12.50;;
23236;SDS011;11787;52.018;8.570;2022-07-21T20:16:31;12.95;;;11.82;;
23236;SDS011;11787;52.018;8.570;2022-07-21T20:19:02;13.25;;;11.75;;
23236;SDS011;11787;52.018;8.570;2022-07-21T20:21:28;13.35;;;12.00;;
23236;SDS011;11787;52.018;8.570;2022-07-21T20:23:54;12.02;;;11.02;;
23236;SDS011;11787;52.018;8.570;2022-07-21T20:26:20;12.10;;;11.00;;
23236;SDS011;11787;52.018;8.570;2022-07-21T20:28:45;13.50;;;12.20;;
23236;SDS011;11787;52.018;8.570;2022-07-21T20:31:11;13.45;;;12.02;;
23236;SDS011;11787;52.018;8.570;2022-07-21T20:33:36;12.30;;;11.20;;
23236;SDS011;11787;52.018;8.570;2022-07-21T20:36:02;12.38;;;11.38;;
23236;SDS011;11787;52.018;8.570;2022-07-21T20:38:28;13.70;;;12.60;;
23236;SDS011;11787;52.018;8.570;2022-07-21T20:40:54;12.73;;;11.57;;
23236;SDS011;11787;52.018;8.570;2022-07-21T20:43:19;14.43;;;13.15;;
23236;SDS011;11787;52.018;8.570;2022-07-21T20:45:45;15.48;;;14.18;;
23236;SDS011;11787;52.018;8.570;2022-07-21T20:48:10;17.23;;;15.73;;
23236;SDS011;11787;52.018;8.570;2022-07-21T20:50:36;15.38;;;14.07;;
23236;SDS011;11787;52.018;8.570;2022-07-21T20:53:05;14.98;;;13.68;;
23236;SDS011;11787;52.018;8.570;2022-07-21T20:55:32;16.27;;;14.88;;
23236;SDS011;11787;52.018;8.570;2022-07-21T20:57:59;15.45;;;14.10;;
23236;SDS011;11787;52.018;8.570;2022-07-21T21:00:25;19.52;;;17.67;;
23236;SDS011;11787;52.018;8.570;2022-07-21T21:02:51;19.25;;;17.55;;
23236;SDS011;11787;52.018;8.570;2022-07-21T21:05:17;20.70;;;18.70;;
23236;SDS011;11787;52.018;8.570;2022-07-21T21:07:43;18.80;;;17.10;;
23236;SDS011;11787;52.018;8.570;2022-07-21T21:10:09;17.23;;;15.57;;
23236;SDS011;11787;52.018;8.570;2022-07-21T21:12:35;17.40;;;15.98;;
23236;SDS011;11787;52.018;8.570;2022-07-21T21:15:01;18.35;;;16.45;;
23236;SDS011;11787;52.018;8.570;2022-07-21T21:17:27;18.83;;;17.02;;
23236;SDS011;11787;52.018;8.570;2022-07-21T21:19:52;17.70;;;16.00;;
23236;SDS011;11787;52.018;8.570;2022-07-21T21:22:18;15.60;;;14.30;;
23236;SDS011;11787;52.018;8.570;2022-07-21T21:24:43;15.60;;;14.20;;
23236;SDS011;11787;52.018;8.570;2022-07-21T21:27:09;16.10;;;14.73;;
23236;SDS011;11787;52.018;8.570;2022-07-21T21:29:35;14.82;;;13.52;;
23236;SDS011;11787;52.018;8.570;2022-07-21T21:32:01;15.98;;;14.68;;
23236;SDS011;11787;52.018;8.570;2022-07-21T21:34:27;15.60;;;14.23;;
23236;SDS011;11787;52.018;8.570;2022-07-21T21:36:53;16.38;;;14.98;;
23236;SDS011;11787;52.018;8.570;2022-07-21T21:39:19;17.08;;;15.43;;
23236;SDS011;11787;52.018;8.570;2022-07-21T21:41:44;18.50;;;16.88;;
23236;SDS011;11787;52.018;8.570;2022-07-21T21:44:10;16.65;;;15.20;;
23236;SDS011;11787;52.018;8.570;2022-07-21T21:46:36;17.50;;;15.90;;
23236;SDS011;11787;52.018;8.570;2022-07-21T21:49:02;14.57;;;13.38;;
23236;SDS011;11787;52.018;8.570;2022-07-21T21:51:27;16.10;;;14.70;;
23236;SDS011;11787;52.018;8.570;2022-07-21T21:53:54;18.08;;;16.48;;
23236;SDS011;11787;52.018;8.570;2022-07-21T21:56:19;16.92;;;15.50;;
23236;SDS011;11787;52.018;8.570;2022-07-21T21:58:45;17.02;;;15.55;;
23236;SDS011;11787;52.018;8.570;2022-07-21T22:01:11;15.35;;;14.02;;
23236;SDS011;11787;52.018;8.570;2022-07-21T22:03:37;16.50;;;15.00;;
23236;SDS011;11787;52.018;8.570;2022-07-21T22:06:04;19.63;;;17.80;;
23236;SDS011;11787;52.018;8.570;2022-07-21T22:08:30;18.45;;;16.77;;
23236;SDS011;11787;52.018;8.570;2022-07-21T22:10:55;18.13;;;16.52;;
23236;SDS011;11787;52.018;8.570;2022-07-21T22:13:21;19.75;;;17.88;;
23236;SDS011;11787;52.018;8.570;2022-07-21T22:15:47;18.73;;;17.02;;
23236;SDS011;11787;52.018;8.570;2022-07-21T22:18:12;21.15;;;19.27;;
23236;SDS011;11787;52.018;8.570;2022-07-21T22:20:38;19.35;;;17.45;;
23236;SDS011;11787;52.018;8.570;2022-07-21T22:23:04;17.80;;;16.10;;
23236;SDS011;11787;52.018;8.570;2022-07-21T22:25:30;21.05;;;19.20;;
23236;SDS011;11787;52.018;8.570;2022-07-21T22:27:55;17.75;;;16.17;;
23236;SDS011;11787;52.018;8.570;2022-07-21T22:30:21;20.02;;;18.13;;
23236;SDS011;11787;52.018;8.570;2022-07-21T22:32:46;21.80;;;19.75;;
23236;SDS011;11787;52.018;8.570;2022-07-21T22:35:12;20.55;;;18.70;;
23236;SDS011;11787;52.018;8.570;2022-07-21T22:37:38;21.73;;;19.58;;
23236;SDS011;11787;52.018;8.570;2022-07-21T22:40:04;19.85;;;18.05;;
23236;SDS011;11787;52.018;8.570;2022-07-21T22:42:30;18.30;;;16.52;;
23236;SDS011;11787;52.018;8.570;2022-07-21T22:44:56;20.67;;;18.52;;
23236;SDS011;11787;52.018;8.570;2022-07-21T22:47:21;19.80;;;18.00;;
23236;SDS011;11787;52.018;8.570;2022-07-21T22:49:47;23.00;;;20.83;;
23236;SDS011;11787;52.018;8.570;2022-07-21T22:52:13;21.98;;;19.98;;
23236;SDS011;11787;52.018;8.570;2022-07-21T22:54:39;21.08;;;18.88;;